createdAt,value
2018-10-03T00:00:31.970Z,94551.00
2018-10-03T00:03:01.077Z,94552.80
2018-10-03T00:05:30.042Z,94558.87
2018-10-03T00:07:59.083Z,94557.18
2018-10-03T00:10:28.331Z,94566.27
2018-10-03T00:12:57.607Z,94561.38
2018-10-03T00:15:26.871Z,94567.26
2018-10-03T00:17:55.945Z,94562.77
2018-10-03T00:20:25.585Z,94564.98
2018-10-03T00:22:54.739Z,94568.88
2018-10-03T00:25:23.742Z,94567.06
2018-10-03T00:27:52.876Z,94561.39
2018-10-03T00:30:21.876Z,94554.62
2018-10-03T00:32:50.817Z,94555.22
2018-10-03T00:35:19.782Z,94559.41
2018-10-03T00:37:48.839Z,94557.28
2018-10-03T00:40:17.824Z,94555.02
2018-10-03T00:42:46.889Z,94553.43
2018-10-03T00:45:15.961Z,94554.42
2018-10-03T00:47:45.068Z,94553.13
2018-10-03T00:50:14.546Z,94543.06
2018-10-03T00:52:43.486Z,94546.94
2018-10-03T00:55:12.552Z,94553.41
2018-10-03T00:57:41.850Z,94546.81
2018-10-03T01:00:10.861Z,94547.27
2018-10-03T01:02:39.994Z,94544.13
2018-10-03T01:05:09.090Z,94544.52
2018-10-03T01:07:38.878Z,94548.38
2018-10-03T01:10:07.857Z,94540.77
2018-10-03T01:12:36.869Z,94551.03
2018-10-03T01:15:06.306Z,94553.53
2018-10-03T01:17:35.227Z,94544.49
2018-10-03T01:20:04.326Z,94537.11
2018-10-03T01:22:33.300Z,94541.70
2018-10-03T01:25:02.423Z,94542.49
2018-10-03T01:27:31.638Z,94541.89
2018-10-03T01:30:01.814Z,94548.69
2018-10-03T01:32:31.253Z,94546.87
2018-10-03T01:35:00.631Z,94546.09
2018-10-03T01:37:29.947Z,94544.09
2018-10-03T01:39:59.227Z,94541.30
2018-10-03T01:42:28.522Z,94543.18
2018-10-03T01:44:57.961Z,94546.91
2018-10-03T01:47:27.150Z,94547.36
2018-10-03T01:49:56.191Z,94556.59
2018-10-03T01:52:25.250Z,94547.69
2018-10-03T01:54:54.376Z,94545.20
2018-10-03T01:57:23.456Z,94538.20
2018-10-03T01:59:52.451Z,94545.52
2018-10-03T02:02:21.458Z,94550.83
2018-10-03T02:04:50.400Z,94549.50
2018-10-03T02:07:19.452Z,94551.53
2018-10-03T02:09:48.506Z,94546.73
2018-10-03T02:12:17.532Z,94556.12
2018-10-03T02:14:46.572Z,94551.22
2018-10-03T02:17:15.742Z,94549.11
2018-10-03T02:19:44.766Z,94544.91
2018-10-03T02:22:13.733Z,94558.00
2018-10-03T02:24:42.769Z,94553.36
2018-10-03T02:27:11.705Z,94560.17
2018-10-03T02:29:40.815Z,94565.27
2018-10-03T02:32:09.913Z,94559.25
2018-10-03T02:34:38.869Z,94565.86
2018-10-03T02:37:08.313Z,94560.91
2018-10-03T02:39:37.700Z,94562.84
2018-10-03T02:42:07.036Z,94568.98
2018-10-03T02:44:36.189Z,94571.66
2018-10-03T02:47:05.507Z,94577.03
2018-10-03T02:49:34.474Z,94578.94
2018-10-03T02:52:03.489Z,94582.91
2018-10-03T02:54:32.668Z,94585.82
2018-10-03T02:57:01.714Z,94584.56
2018-10-03T02:59:30.785Z,94590.05
2018-10-03T03:01:59.841Z,94592.72
2018-10-03T03:04:28.912Z,94597.91
2018-10-03T03:06:57.926Z,94600.02
2018-10-03T03:09:26.971Z,94608.37
2018-10-03T03:11:56.056Z,94608.09
2018-10-03T03:14:25.127Z,94604.89
2018-10-03T03:16:54.154Z,94603.73
2018-10-03T03:19:23.166Z,94600.75
2018-10-03T03:21:52.153Z,94604.62
2018-10-03T03:24:21.171Z,94603.23
2018-10-03T03:26:50.136Z,94605.44
2018-10-03T03:29:19.152Z,94611.91
2018-10-03T03:31:48.196Z,94593.47
2018-10-03T03:34:17.225Z,94602.13
2018-10-03T03:36:46.254Z,94605.22
2018-10-03T03:39:15.409Z,94620.91
2018-10-03T03:41:45.466Z,94614.23
2018-10-03T03:44:14.622Z,94618.20
2018-10-03T03:46:43.649Z,94620.91
2018-10-03T03:49:12.672Z,94632.77
2018-10-03T03:51:41.692Z,94625.91
2018-10-03T03:54:10.704Z,94631.06
2018-10-03T03:56:39.743Z,94615.80
2018-10-03T03:59:08.708Z,94637.99
2018-10-03T04:01:37.756Z,94636.62
2018-10-03T04:04:06.867Z,94642.98
2018-10-03T04:06:35.881Z,94652.46
2018-10-03T04:09:05.999Z,94650.48
2018-10-03T04:11:35.041Z,94649.07
2018-10-03T04:14:04.173Z,94632.84
2018-10-03T04:16:33.295Z,94642.59
2018-10-03T04:19:03.206Z,94569.41
2018-10-03T04:21:39.541Z,94641.60
2018-10-03T04:24:09.790Z,94638.81
2018-10-03T04:26:39.829Z,94640.52
2018-10-03T04:29:09.001Z,94636.22
2018-10-03T04:31:38.348Z,94635.03
2018-10-03T04:34:07.466Z,94636.84
2018-10-03T04:36:36.717Z,94626.09
2018-10-03T04:39:07.699Z,94618.39
2018-10-03T04:41:37.431Z,94617.59
2018-10-03T04:44:06.429Z,94631.84
2018-10-03T04:46:35.508Z,94621.44
2018-10-03T04:49:04.603Z,94631.49
2018-10-03T04:51:33.659Z,94623.68
2018-10-03T04:54:02.687Z,94618.65
2018-10-03T04:56:31.757Z,94623.78
2018-10-03T04:59:00.989Z,94619.09
2018-10-03T05:01:30.037Z,94624.91
2018-10-03T05:03:59.172Z,94622.51
2018-10-03T05:06:28.162Z,94633.19
2018-10-03T05:08:57.312Z,94630.77
2018-10-03T05:11:26.499Z,94634.76
2018-10-03T05:13:55.511Z,94627.67
2018-10-03T05:16:24.678Z,94639.25
2018-10-03T05:18:53.630Z,94650.66
2018-10-03T05:21:22.603Z,94648.56
2018-10-03T05:23:51.628Z,94654.45
2018-10-03T05:26:20.606Z,94649.95
2018-10-03T05:28:49.646Z,94647.06
2018-10-03T05:31:18.634Z,94643.08
2018-10-03T05:33:47.778Z,94643.56
2018-10-03T05:36:17.146Z,94639.77
2018-10-03T05:38:46.493Z,94632.21
2018-10-03T05:41:15.519Z,94635.00
2018-10-03T05:43:44.570Z,94630.09
2018-10-03T05:46:13.605Z,94637.68
2018-10-03T05:48:42.803Z,94638.20
2018-10-03T05:51:11.808Z,94655.73
2018-10-03T05:53:40.924Z,94654.45
2018-10-03T05:56:10.094Z,94666.12
2018-10-03T05:58:39.503Z,94660.55
2018-10-03T06:01:09.037Z,94660.55
2018-10-03T06:03:38.133Z,94656.44
2018-10-03T06:06:07.793Z,94665.37
2018-10-03T06:08:37.155Z,94650.09
2018-10-03T06:11:06.987Z,94650.16
2018-10-03T06:13:35.960Z,94655.95
2018-10-03T06:16:05.599Z,94644.27
2018-10-03T06:18:35.015Z,94662.64
2018-10-03T06:21:04.357Z,94650.43
2018-10-03T06:23:33.666Z,94664.61
2018-10-03T06:26:03.117Z,94664.09
2018-10-03T06:28:32.413Z,94666.70
2018-10-03T06:31:01.587Z,94660.97
2018-10-03T06:33:30.669Z,94654.83
2018-10-03T06:36:01.203Z,94659.19
2018-10-03T06:38:30.522Z,94668.39
2018-10-03T06:40:59.847Z,94665.13
2018-10-03T06:43:29.267Z,94675.14
2018-10-03T06:45:58.519Z,94674.89
2018-10-03T06:48:27.624Z,94675.44
2018-10-03T06:50:56.789Z,94665.86
2018-10-03T06:53:26.347Z,94676.94
2018-10-03T06:55:56.922Z,94678.14
2018-10-03T06:58:25.920Z,94675.74
2018-10-03T07:00:54.926Z,94677.45
2018-10-03T07:03:24.067Z,94683.28
2018-10-03T07:05:53.194Z,94679.77
2018-10-03T07:08:22.253Z,94680.89
2018-10-03T07:10:51.744Z,94689.27
2018-10-03T07:13:20.849Z,94680.82
2018-10-03T07:15:50.287Z,94673.43
2018-10-03T07:18:19.346Z,94678.72
2018-10-03T07:20:48.495Z,94687.78
2018-10-03T07:23:17.571Z,94680.55
2018-10-03T07:25:46.628Z,94674.19
2018-10-03T07:28:16.303Z,94677.08
2018-10-03T07:30:45.395Z,94677.70
2018-10-03T07:33:14.451Z,94662.64
2018-10-03T07:35:43.646Z,94670.89
2018-10-03T07:38:12.968Z,94656.70
2018-10-03T07:40:42.003Z,94664.95
2018-10-03T07:43:10.991Z,94667.19
2018-10-03T07:45:40.085Z,94673.39
2018-10-03T07:48:09.223Z,94665.27
2018-10-03T07:50:38.143Z,94666.93
2018-10-03T07:53:07.444Z,94677.31
2018-10-03T07:55:36.469Z,94674.42
2018-10-03T07:58:05.745Z,94678.12
2018-10-03T08:00:34.821Z,94678.03
2018-10-03T08:03:04.162Z,94682.23
2018-10-03T08:05:33.243Z,94680.56
2018-10-03T08:08:02.230Z,94681.48
2018-10-03T08:10:31.298Z,94689.23
2018-10-03T08:13:00.337Z,94679.91
2018-10-03T08:15:29.786Z,94681.26
2018-10-03T08:17:58.780Z,94686.05
2018-10-03T08:20:28.012Z,94679.27
2018-10-03T08:22:57.188Z,94684.14
2018-10-03T08:25:26.197Z,94682.11
2018-10-03T08:27:55.706Z,94688.39
2018-10-03T08:30:24.668Z,94690.22
2018-10-03T08:32:53.984Z,94690.44
2018-10-03T08:35:23.127Z,94695.91
2018-10-03T08:37:52.528Z,94691.84
2018-10-03T08:40:21.523Z,94688.58
2018-10-03T08:42:50.577Z,94701.30
2018-10-03T08:45:19.681Z,94703.81
2018-10-03T08:47:48.690Z,94699.58
2018-10-03T08:50:17.750Z,94700.08
2018-10-03T08:52:46.752Z,94693.27
2018-10-03T08:55:15.829Z,94699.77
2018-10-03T08:57:44.918Z,94696.07
2018-10-03T09:00:14.187Z,94696.87
2018-10-03T09:02:43.346Z,94705.30
2018-10-03T09:05:13.211Z,94716.94
2018-10-03T09:07:42.441Z,94701.73
2018-10-03T09:10:11.552Z,94710.77
2018-10-03T09:12:40.751Z,94698.83
2018-10-03T09:15:10.091Z,94697.98
2018-10-03T09:17:39.218Z,94710.85
2018-10-03T09:20:08.524Z,94708.69
2018-10-03T09:22:37.617Z,94708.63
2018-10-03T09:25:06.601Z,94711.15
2018-10-03T09:27:35.675Z,94711.01
2018-10-03T09:30:05.563Z,94702.23
2018-10-03T09:32:34.670Z,94704.13
2018-10-03T09:35:04.448Z,94715.14
2018-10-03T09:37:33.500Z,94712.94
2018-10-03T09:40:02.580Z,94730.34
2018-10-03T09:42:32.024Z,94713.91
2018-10-03T09:45:01.131Z,94710.55
2018-10-03T09:47:30.181Z,94716.56
2018-10-03T09:49:59.292Z,94714.43
2018-10-03T09:52:29.243Z,94713.59
2018-10-03T09:54:58.431Z,94716.92
2018-10-03T09:57:27.405Z,94714.80
2018-10-03T09:59:56.465Z,94721.53
2018-10-03T10:02:25.754Z,94714.42
2018-10-03T10:04:54.829Z,94722.10
2018-10-03T10:07:23.891Z,94703.84
2018-10-03T10:09:52.997Z,94718.48
2018-10-03T10:12:21.997Z,94719.70
2018-10-03T10:14:51.119Z,94718.63
2018-10-03T10:17:20.126Z,94723.75
2018-10-03T10:19:49.195Z,94721.53
2018-10-03T10:22:18.263Z,94715.95
2018-10-03T10:24:47.290Z,94720.17
2018-10-03T10:27:16.424Z,94723.73
2018-10-03T10:29:45.638Z,94713.17
2018-10-03T10:32:14.740Z,94718.69
2018-10-03T10:34:43.756Z,94711.80
2018-10-03T10:37:12.777Z,94712.57
2018-10-03T10:39:41.835Z,94713.82
2018-10-03T10:42:10.928Z,94705.57
2018-10-03T10:44:40.027Z,94706.09
2018-10-03T10:47:09.058Z,94695.64
2018-10-03T10:49:38.055Z,94709.59
2018-10-03T10:52:07.197Z,94712.62
2018-10-03T10:54:36.162Z,94714.58
2018-10-03T10:57:05.327Z,94712.80
2018-10-03T10:59:34.339Z,94718.46
2018-10-03T11:02:03.341Z,94717.27
2018-10-03T11:04:32.525Z,94719.44
2018-10-03T11:07:01.564Z,94722.50
2018-10-03T11:09:30.900Z,94726.89
2018-10-03T11:12:00.150Z,94730.30
2018-10-03T11:14:29.154Z,94735.19
2018-10-03T11:16:58.204Z,94729.05
2018-10-03T11:19:27.195Z,94731.14
2018-10-03T11:21:56.214Z,94732.42
2018-10-03T11:24:25.474Z,94736.16
2018-10-03T11:26:54.614Z,94730.65
2018-10-03T11:29:24.868Z,94739.14
2018-10-03T11:31:54.058Z,94722.05
2018-10-03T11:34:23.156Z,94720.50
2018-10-03T11:36:52.440Z,94723.05
2018-10-03T11:39:21.505Z,94720.21
2018-10-03T11:41:50.651Z,94698.58
2018-10-03T11:44:20.281Z,94702.78
2018-10-03T11:46:49.486Z,94700.58
2018-10-03T11:49:19.399Z,94696.70
2018-10-03T11:51:48.667Z,94706.92
2018-10-03T11:54:18.209Z,94700.75
2018-10-03T11:56:47.319Z,94703.03
2018-10-03T11:59:16.501Z,94705.02
2018-10-03T12:01:45.808Z,94703.97
2018-10-03T12:04:14.945Z,94690.63
2018-10-03T12:06:43.961Z,94685.52
2018-10-03T12:09:14.015Z,94696.78
2018-10-03T12:11:44.074Z,94693.18
2018-10-03T12:14:13.373Z,94696.30
2018-10-03T12:16:44.053Z,94687.73
2018-10-03T12:19:13.221Z,94698.02
2018-10-03T12:21:43.537Z,94677.56
2018-10-03T12:24:12.565Z,94695.25
2018-10-03T12:26:41.791Z,94681.90
2018-10-03T12:29:11.642Z,94697.61
2018-10-03T12:31:40.793Z,94692.30
2018-10-03T12:34:10.041Z,94702.33
2018-10-03T12:36:40.435Z,94688.23
2018-10-03T12:39:13.227Z,94683.08
2018-10-03T12:41:44.009Z,94693.63
2018-10-03T12:44:13.248Z,94690.45
2018-10-03T12:46:42.412Z,94699.67
2018-10-03T12:49:11.624Z,94690.23
2018-10-03T12:51:40.816Z,94687.91
2018-10-03T12:54:09.858Z,94706.89
2018-10-03T12:56:39.179Z,94706.31
2018-10-03T12:59:08.385Z,94701.65
2018-10-03T13:01:37.559Z,94697.78
2018-10-03T13:04:06.847Z,94687.39
2018-10-03T13:06:36.485Z,94694.02
2018-10-03T13:09:09.524Z,94695.20
2018-10-03T13:11:38.751Z,94704.83
2018-10-03T13:14:08.187Z,94715.39
2018-10-03T13:16:37.495Z,94718.47
2018-10-03T13:19:06.588Z,94720.52
2018-10-03T13:21:37.596Z,94719.27
2018-10-03T13:24:08.138Z,94706.73
2018-10-03T13:26:37.915Z,94707.05
2018-10-03T13:29:07.275Z,94711.44
2018-10-03T13:31:36.575Z,94704.62
2018-10-03T13:34:05.812Z,94711.21
2018-10-03T13:36:35.162Z,94707.58
2018-10-03T13:39:05.333Z,94702.75
2018-10-03T13:41:34.666Z,94709.86
2018-10-03T13:44:03.817Z,94706.07
2018-10-03T13:46:33.671Z,94703.09
2018-10-03T13:49:02.719Z,94710.50
2018-10-03T13:51:31.876Z,94700.50
2018-10-03T13:54:01.334Z,94710.99
2018-10-03T13:56:30.480Z,94695.56
2018-10-03T13:58:59.831Z,94699.75
2018-10-03T14:01:31.198Z,94702.89
2018-10-03T14:04:00.592Z,94695.58
2018-10-03T14:06:29.778Z,94694.13
2018-10-03T14:08:59.276Z,94683.59
2018-10-03T14:11:28.483Z,94678.95
2018-10-03T14:13:57.677Z,94685.05
2018-10-03T14:16:26.836Z,94695.05
2018-10-03T14:18:55.978Z,94705.00
2018-10-03T14:21:25.138Z,94703.68
2018-10-03T14:23:58.547Z,94695.26
2018-10-03T14:26:28.923Z,94703.59
2018-10-03T14:28:59.467Z,94701.56
2018-10-03T14:31:33.390Z,94714.72
2018-10-03T14:34:02.550Z,94696.23
2018-10-03T14:36:31.669Z,94704.72
2018-10-03T14:39:00.761Z,94718.75
2018-10-03T14:41:30.148Z,94700.36
2018-10-03T14:43:59.570Z,94713.33
2018-10-03T14:46:28.947Z,94709.92
2018-10-03T14:48:59.293Z,94713.42
2018-10-03T14:51:29.299Z,94715.88
2018-10-03T14:53:58.334Z,94727.76
2018-10-03T14:56:27.809Z,94718.25
2018-10-03T14:58:57.648Z,94712.90
2018-10-03T15:01:27.211Z,94722.11
2018-10-03T15:03:56.661Z,94730.16
2018-10-03T15:06:26.938Z,94728.34
2018-10-03T15:08:56.341Z,94718.80
2018-10-03T15:11:25.769Z,94718.59
2018-10-03T15:13:55.463Z,94731.17
2018-10-03T15:16:25.162Z,94734.14
2018-10-03T15:18:54.282Z,94728.05
2018-10-03T15:21:23.337Z,94719.90
2018-10-03T15:23:52.535Z,94740.52
2018-10-03T15:26:21.633Z,94735.88
2018-10-03T15:28:50.763Z,94729.53
2018-10-03T15:31:21.255Z,94726.97
2018-10-03T15:33:50.812Z,94734.90
2018-10-03T15:36:26.317Z,94738.69
2018-10-03T15:38:56.117Z,94732.79
2018-10-03T15:41:25.832Z,94733.80
2018-10-03T15:43:55.448Z,94730.61
2018-10-03T15:46:25.187Z,94734.75
2018-10-03T15:48:54.577Z,94736.70
2018-10-03T15:51:23.779Z,94747.52
2018-10-03T15:53:52.850Z,94750.70
2018-10-03T15:56:21.944Z,94748.16
2018-10-03T15:58:51.974Z,94749.25
2018-10-03T16:01:21.036Z,94755.27
2018-10-03T16:03:50.136Z,94760.39
2018-10-03T16:06:19.225Z,94760.11
2018-10-03T16:08:48.272Z,94754.47
2018-10-03T16:11:17.962Z,94754.47
2018-10-03T16:13:47.008Z,94759.59
2018-10-03T16:16:16.753Z,94764.98
2018-10-03T16:18:47.018Z,94779.44
2018-10-03T16:21:16.112Z,94778.64
2018-10-03T16:23:46.405Z,94788.48
2018-10-03T16:26:15.833Z,94784.98
2018-10-03T16:28:44.956Z,94798.16
2018-10-03T16:31:14.177Z,94789.83
2018-10-03T16:33:43.298Z,94796.72
2018-10-03T16:36:12.559Z,94787.64
2018-10-03T16:38:42.828Z,94793.77
2018-10-03T16:41:13.571Z,94796.21
2018-10-03T16:43:43.852Z,94807.43
2018-10-03T16:46:14.596Z,94801.47
2018-10-03T16:48:43.831Z,94805.96
2018-10-03T16:51:12.871Z,94812.85
2018-10-03T16:53:41.982Z,94814.60
2018-10-03T16:56:12.023Z,94815.61
2018-10-03T16:58:41.094Z,94820.23
2018-10-03T17:01:10.399Z,94831.19
2018-10-03T17:03:39.616Z,94827.23
2018-10-03T17:06:08.788Z,94837.16
2018-10-03T17:08:37.857Z,94848.41
2018-10-03T17:11:08.099Z,94849.48
2018-10-03T17:13:46.652Z,94846.94
2018-10-03T17:16:15.779Z,94866.14
2018-10-03T17:18:44.842Z,94862.83
2018-10-03T17:21:14.129Z,94870.47
2018-10-03T17:23:43.262Z,94869.16
2018-10-03T17:26:12.690Z,94872.20
2018-10-03T17:28:42.077Z,94873.41
2018-10-03T17:31:11.132Z,94883.57
2018-10-03T17:33:40.531Z,94886.02
2018-10-03T17:36:09.708Z,94885.91
2018-10-03T17:38:38.815Z,94896.23
2018-10-03T17:41:08.175Z,94897.59
2018-10-03T17:43:37.256Z,94914.41
2018-10-03T17:46:06.821Z,94910.12
2018-10-03T17:48:38.189Z,94909.39
2018-10-03T17:51:07.489Z,94917.21
2018-10-03T17:53:36.595Z,94910.72
2018-10-03T17:56:06.807Z,94924.43
2018-10-03T17:58:36.024Z,94923.32
2018-10-03T18:01:05.421Z,94925.15
2018-10-03T18:03:34.525Z,94938.61
2018-10-03T18:06:04.509Z,94927.48
2018-10-03T18:08:37.644Z,94940.87
2018-10-03T18:11:07.054Z,94935.57
2018-10-03T18:13:36.329Z,94943.67
2018-10-03T18:16:06.609Z,94947.33
2018-10-03T18:18:36.937Z,94950.99
2018-10-03T18:21:06.298Z,94955.03
2018-10-03T18:23:35.561Z,94945.03
2018-10-03T18:26:04.819Z,94947.56
2018-10-03T18:28:34.367Z,94949.94
2018-10-03T18:31:03.658Z,94960.84
2018-10-03T18:33:35.237Z,94957.16
2018-10-03T18:36:04.457Z,94955.33
2018-10-03T18:38:34.193Z,94958.89
2018-10-03T18:41:03.464Z,94962.23
2018-10-03T18:43:32.767Z,94964.14
2018-10-03T18:46:05.124Z,94958.03
2018-10-03T18:48:34.661Z,94958.04
2018-10-03T18:51:05.935Z,94972.55
2018-10-03T18:53:35.947Z,94969.74
2018-10-03T18:56:07.212Z,94971.55
2018-10-03T18:58:38.238Z,94973.27
2018-10-03T19:01:07.430Z,94978.87
2018-10-03T19:03:36.596Z,94977.17
2018-10-03T19:06:06.136Z,94980.67
2018-10-03T19:08:35.800Z,94947.98
2018-10-03T19:11:06.116Z,94980.65
2018-10-03T19:13:36.304Z,94983.85
2018-10-03T19:16:07.331Z,95000.27
2018-10-03T19:18:38.726Z,94994.86
2018-10-03T19:21:08.989Z,95002.77
2018-10-03T19:23:38.263Z,95002.46
2018-10-03T19:26:07.615Z,95010.47
2018-10-03T19:28:37.001Z,95009.29
2018-10-03T19:31:06.959Z,95017.48
2018-10-03T19:33:36.387Z,95015.48
2018-10-03T19:36:05.611Z,95021.58
2018-10-03T19:38:36.155Z,95017.80
2018-10-03T19:41:06.643Z,95025.70
2018-10-03T19:43:36.036Z,95022.59
2018-10-03T19:46:05.430Z,95032.78
2018-10-03T19:48:34.847Z,95036.29
2018-10-03T19:51:04.072Z,95027.09
2018-10-03T19:53:34.772Z,95033.59
2018-10-03T19:56:04.663Z,95031.59
2018-10-03T19:58:33.821Z,95039.78
2018-10-03T20:01:02.852Z,95040.09
2018-10-03T20:03:32.041Z,95031.79
2018-10-03T20:06:01.066Z,95034.09
2018-10-03T20:08:30.232Z,95028.48
2018-10-03T20:10:59.289Z,95027.88
2018-10-03T20:13:28.351Z,95031.89
2018-10-03T20:15:57.469Z,95030.59
2018-10-03T20:18:26.515Z,95029.98
2018-10-03T20:20:55.596Z,95029.88
2018-10-03T20:23:24.807Z,95034.57
2018-10-03T20:25:53.875Z,95029.59
2018-10-03T20:28:22.895Z,95032.98
2018-10-03T20:30:52.014Z,95038.40
2018-10-03T20:33:21.156Z,95043.39
2018-10-03T20:35:50.220Z,95048.98
2018-10-03T20:38:19.324Z,95037.58
2018-10-03T20:40:48.439Z,95046.84
2018-10-03T20:43:17.680Z,95048.52
2018-10-03T20:45:46.775Z,95062.92
2018-10-03T20:48:15.996Z,95056.00
2018-10-03T20:50:44.999Z,95059.33
2018-10-03T20:53:14.046Z,95066.76
2018-10-03T20:55:43.037Z,95060.36
2018-10-03T20:58:12.175Z,95071.20
2018-10-03T21:00:41.223Z,95065.79
2018-10-03T21:03:10.365Z,95061.09
2018-10-03T21:05:39.383Z,95065.61
2018-10-03T21:08:08.482Z,95069.73
2018-10-03T21:10:37.661Z,95071.03
2018-10-03T21:13:06.798Z,95066.14
2018-10-03T21:15:35.866Z,95071.42
2018-10-03T21:18:04.985Z,95065.84
2018-10-03T21:20:34.056Z,95068.44
2018-10-03T21:23:03.196Z,95072.95
2018-10-03T21:25:32.256Z,95077.83
2018-10-03T21:28:01.274Z,95074.55
2018-10-03T21:30:30.369Z,95076.45
2018-10-03T21:32:59.397Z,95077.95
2018-10-03T21:35:28.480Z,95084.21
2018-10-03T21:37:57.637Z,95074.42
2018-10-03T21:40:27.793Z,95073.81
2018-10-03T21:42:57.852Z,95080.30
2018-10-03T21:45:26.862Z,95077.33
2018-10-03T21:47:55.945Z,95081.31
2018-10-03T21:50:26.145Z,95080.50
2018-10-03T21:52:56.139Z,95081.53
2018-10-03T21:55:26.380Z,95079.74
2018-10-03T21:57:55.481Z,95079.02
2018-10-03T22:00:28.621Z,95083.52
2018-10-03T22:02:57.798Z,95085.70
2018-10-03T22:05:27.151Z,95078.02
2018-10-03T22:07:56.246Z,95082.30
2018-10-03T22:10:25.952Z,95086.48
2018-10-03T22:12:54.963Z,95085.87
2018-10-03T22:15:25.168Z,95088.78
2018-10-03T22:17:54.412Z,95085.69
2018-10-03T22:20:23.743Z,95090.95
2018-10-03T22:22:53.015Z,95092.99
2018-10-03T22:25:22.172Z,95094.29
2018-10-03T22:27:51.320Z,95090.28
2018-10-03T22:30:20.456Z,95089.78
2018-10-03T22:32:49.628Z,95099.31
2018-10-03T22:35:19.698Z,95098.70
2018-10-03T22:37:48.948Z,95105.30
2018-10-03T22:40:19.142Z,95104.50
2018-10-03T22:42:48.276Z,95094.62
2018-10-03T22:45:17.340Z,95091.83
2018-10-03T22:47:46.457Z,95097.70
2018-10-03T22:50:15.546Z,95091.52
2018-10-03T22:52:45.400Z,95089.00
2018-10-03T22:55:14.408Z,95091.09
2018-10-03T22:57:43.443Z,95096.48
2018-10-03T23:00:12.537Z,95094.78
2018-10-03T23:02:41.594Z,95099.85
2018-10-03T23:05:11.359Z,95098.58
2018-10-03T23:07:40.438Z,95106.16
2018-10-03T23:10:09.840Z,95105.60
2018-10-03T23:12:38.976Z,95110.61
2018-10-03T23:15:08.040Z,95118.95
2018-10-03T23:17:37.233Z,95116.54
2018-10-03T23:20:06.388Z,95119.81
2018-10-03T23:22:35.435Z,95121.58
2018-10-03T23:25:04.630Z,95127.02
2018-10-03T23:27:33.654Z,95124.79
2018-10-03T23:30:02.823Z,95126.12
2018-10-03T23:32:31.822Z,95124.70
2018-10-03T23:35:00.968Z,95127.56
2018-10-03T23:37:29.986Z,95131.28
2018-10-03T23:39:59.199Z,95136.28
2018-10-03T23:42:28.394Z,95137.20
2018-10-03T23:44:57.396Z,95132.84
2018-10-03T23:47:26.472Z,95131.12
2018-10-03T23:49:55.591Z,95143.59
2018-10-03T23:52:24.642Z,95143.02
2018-10-03T23:54:53.689Z,95142.09
2018-10-03T23:57:22.824Z,95149.70
2018-10-03T23:59:52.017Z,95145.95
